KBOK/BOK METAR and TAF weather

Enter ICAO airport designator
Station Type Date Time Source
KBOK METAR 2020/01/20 15:56 UTC NOAA

KBOK 201556Z AUTO 11004KT 10SM BKN110 06/06 A2996 RMK AO2 SLP149 T00610056


Station Type Date Time Source
KBOK Decoded METAR 2020/01/20 15:56 UTC NOAA

Brookings, Brookings Airport, OR, United States (KBOK) 42-04-28N 124-17-24W
Jan 20, 2020 - 10:56 AM EST / 2020.01.20 1556 UTC
Wind: from the ESE (110 degrees) at 5 MPH (4 KT):0
Visibility: 10 mile(s):0
Sky conditions: mostly cloudy
Temperature: 43.0 F (6.1 C)
Dew Point: 42.1 F (5.6 C)
Relative Humidity: 96%
Pressure (altimeter): 29.96 in. Hg (1014 hPa)
ob: KBOK 201556Z AUTO 11004KT 10SM BKN110 06/06 A2996 RMK AO2 SLP149 T00610056
cycle: 16

Station Type Date Time Source
KBOK TAF UTC NOAA

Error!

Example: see airport list